sensor_id;sensor_type;location;lat;lon;timestamp;P1;durP1;ratioP1;P2;durP2;ratioP2
17153;SDS011;8692;52.164;7.558;2022-09-09T00:01:00;2.73;;;1.37;;
17153;SDS011;8692;52.164;7.558;2022-09-09T00:03:40;2.10;;;1.43;;
17153;SDS011;8692;52.164;7.558;2022-09-09T00:06:16;3.40;;;1.60;;
17153;SDS011;8692;52.164;7.558;2022-09-09T00:08:53;2.30;;;1.43;;
17153;SDS011;8692;52.164;7.558;2022-09-09T00:11:28;3.33;;;2.00;;
17153;SDS011;8692;52.164;7.558;2022-09-09T00:14:07;2.20;;;1.33;;
17153;SDS011;8692;52.164;7.558;2022-09-09T00:16:43;2.20;;;1.80;;
17153;SDS011;8692;52.164;7.558;2022-09-09T00:19:20;2.43;;;1.57;;
17153;SDS011;8692;52.164;7.558;2022-09-09T00:21:53;3.10;;;1.90;;
17153;SDS011;8692;52.164;7.558;2022-09-09T00:24:36;3.17;;;2.07;;
17153;SDS011;8692;52.164;7.558;2022-09-09T00:27:11;4.17;;;2.27;;
17153;SDS011;8692;52.164;7.558;2022-09-09T00:29:52;6.33;;;2.27;;
17153;SDS011;8692;52.164;7.558;2022-09-09T00:32:26;4.47;;;2.10;;
17153;SDS011;8692;52.164;7.558;2022-09-09T00:35:02;4.97;;;1.57;;
17153;SDS011;8692;52.164;7.558;2022-09-09T00:37:38;3.27;;;1.87;;
17153;SDS011;8692;52.164;7.558;2022-09-09T00:40:11;3.27;;;1.90;;
17153;SDS011;8692;52.164;7.558;2022-09-09T00:42:54;5.27;;;2.13;;
17153;SDS011;8692;52.164;7.558;2022-09-09T00:45:45;4.57;;;1.90;;
17153;SDS011;8692;52.164;7.558;2022-09-09T00:48:26;3.53;;;1.80;;
17153;SDS011;8692;52.164;7.558;2022-09-09T00:51:05;4.80;;;2.00;;
17153;SDS011;8692;52.164;7.558;2022-09-09T00:53:52;3.97;;;1.90;;
17153;SDS011;8692;52.164;7.558;2022-09-09T00:56:37;4.03;;;1.73;;
17153;SDS011;8692;52.164;7.558;2022-09-09T00:59:17;3.53;;;1.87;;
17153;SDS011;8692;52.164;7.558;2022-09-09T01:01:54;3.80;;;1.90;;
17153;SDS011;8692;52.164;7.558;2022-09-09T01:04:24;2.53;;;1.70;;
17153;SDS011;8692;52.164;7.558;2022-09-09T01:07:01;3.37;;;1.73;;
17153;SDS011;8692;52.164;7.558;2022-09-09T01:09:38;3.53;;;1.60;;
17153;SDS011;8692;52.164;7.558;2022-09-09T01:12:23;3.00;;;1.70;;
17153;SDS011;8692;52.164;7.558;2022-09-09T01:14:56;2.57;;;1.43;;
17153;SDS011;8692;52.164;7.558;2022-09-09T01:17:31;3.83;;;1.20;;
17153;SDS011;8692;52.164;7.558;2022-09-09T01:20:10;3.10;;;1.40;;
17153;SDS011;8692;52.164;7.558;2022-09-09T01:22:58;2.80;;;1.00;;
17153;SDS011;8692;52.164;7.558;2022-09-09T01:26:04;4.03;;;1.40;;
17153;SDS011;8692;52.164;7.558;2022-09-09T01:28:43;2.77;;;1.63;;
17153;SDS011;8692;52.164;7.558;2022-09-09T01:31:17;2.67;;;1.50;;
17153;SDS011;8692;52.164;7.558;2022-09-09T01:33:47;2.83;;;1.10;;
17153;SDS011;8692;52.164;7.558;2022-09-09T01:36:20;1.30;;;1.17;;
17153;SDS011;8692;52.164;7.558;2022-09-09T01:38:54;1.97;;;1.30;;
17153;SDS011;8692;52.164;7.558;2022-09-09T01:41:24;2.87;;;1.33;;
17153;SDS011;8692;52.164;7.558;2022-09-09T01:44:00;1.50;;;1.17;;
17153;SDS011;8692;52.164;7.558;2022-09-09T01:46:31;1.73;;;1.40;;
17153;SDS011;8692;52.164;7.558;2022-09-09T01:49:02;2.13;;;1.30;;
17153;SDS011;8692;52.164;7.558;2022-09-09T01:51:34;2.40;;;1.50;;
17153;SDS011;8692;52.164;7.558;2022-09-09T01:54:06;2.50;;;1.40;;
17153;SDS011;8692;52.164;7.558;2022-09-09T01:56:38;2.10;;;1.20;;
17153;SDS011;8692;52.164;7.558;2022-09-09T01:59:19;2.60;;;1.40;;
17153;SDS011;8692;52.164;7.558;2022-09-09T02:06:14;2.27;;;1.03;;
17153;SDS011;8692;52.164;7.558;2022-09-09T02:08:57;2.10;;;1.30;;
17153;SDS011;8692;52.164;7.558;2022-09-09T02:11:29;3.33;;;1.17;;
17153;SDS011;8692;52.164;7.558;2022-09-09T02:14:16;1.57;;;1.20;;
17153;SDS011;8692;52.164;7.558;2022-09-09T02:16:54;1.00;;;0.90;;
17153;SDS011;8692;52.164;7.558;2022-09-09T02:19:39;1.57;;;1.00;;
17153;SDS011;8692;52.164;7.558;2022-09-09T02:22:23;1.73;;;1.10;;
17153;SDS011;8692;52.164;7.558;2022-09-09T02:24:57;1.23;;;1.07;;
17153;SDS011;8692;52.164;7.558;2022-09-09T02:27:29;3.33;;;1.60;;
17153;SDS011;8692;52.164;7.558;2022-09-09T02:29:59;2.50;;;1.93;;
17153;SDS011;8692;52.164;7.558;2022-09-09T02:32:43;2.50;;;1.97;;
17153;SDS011;8692;52.164;7.558;2022-09-09T02:35:17;2.30;;;1.70;;
17153;SDS011;8692;52.164;7.558;2022-09-09T02:37:48;3.17;;;2.50;;
17153;SDS011;8692;52.164;7.558;2022-09-09T02:40:19;2.40;;;2.10;;
17153;SDS011;8692;52.164;7.558;2022-09-09T02:42:55;5.10;;;2.33;;
17153;SDS011;8692;52.164;7.558;2022-09-09T02:45:27;3.90;;;2.20;;
17153;SDS011;8692;52.164;7.558;2022-09-09T02:48:03;2.63;;;2.23;;
17153;SDS011;8692;52.164;7.558;2022-09-09T02:50:48;1.83;;;1.70;;
17153;SDS011;8692;52.164;7.558;2022-09-09T02:53:29;2.53;;;2.30;;
17153;SDS011;8692;52.164;7.558;2022-09-09T02:56:04;2.70;;;2.00;;
17153;SDS011;8692;52.164;7.558;2022-09-09T02:58:40;2.80;;;2.30;;
17153;SDS011;8692;52.164;7.558;2022-09-09T03:01:11;3.10;;;2.20;;
17153;SDS011;8692;52.164;7.558;2022-09-09T03:03:40;2.10;;;1.90;;
17153;SDS011;8692;52.164;7.558;2022-09-09T03:06:14;3.07;;;2.27;;
17153;SDS011;8692;52.164;7.558;2022-09-09T03:08:47;2.90;;;2.27;;
17153;SDS011;8692;52.164;7.558;2022-09-09T03:11:20;4.13;;;2.47;;
17153;SDS011;8692;52.164;7.558;2022-09-09T03:13:49;2.97;;;2.13;;
17153;SDS011;8692;52.164;7.558;2022-09-09T03:16:21;2.70;;;1.87;;
17153;SDS011;8692;52.164;7.558;2022-09-09T03:18:52;1.97;;;1.77;;
17153;SDS011;8692;52.164;7.558;2022-09-09T03:21:21;3.10;;;2.00;;
17153;SDS011;8692;52.164;7.558;2022-09-09T03:23:49;4.77;;;2.20;;
17153;SDS011;8692;52.164;7.558;2022-09-09T03:26:17;2.97;;;1.67;;
17153;SDS011;8692;52.164;7.558;2022-09-09T03:28:46;3.10;;;2.03;;
17153;SDS011;8692;52.164;7.558;2022-09-09T03:31:21;5.93;;;2.50;;
17153;SDS011;8692;52.164;7.558;2022-09-09T03:33:50;2.70;;;2.30;;
17153;SDS011;8692;52.164;7.558;2022-09-09T03:36:20;2.67;;;2.10;;
17153;SDS011;8692;52.164;7.558;2022-09-09T03:38:50;2.37;;;1.80;;
17153;SDS011;8692;52.164;7.558;2022-09-09T03:41:18;3.57;;;2.03;;
17153;SDS011;8692;52.164;7.558;2022-09-09T03:43:50;2.00;;;1.80;;
17153;SDS011;8692;52.164;7.558;2022-09-09T03:46:18;3.23;;;2.10;;
17153;SDS011;8692;52.164;7.558;2022-09-09T03:48:48;3.53;;;1.73;;
17153;SDS011;8692;52.164;7.558;2022-09-09T03:51:17;1.93;;;1.80;;
17153;SDS011;8692;52.164;7.558;2022-09-09T03:53:45;2.47;;;1.80;;
17153;SDS011;8692;52.164;7.558;2022-09-09T03:56:16;3.97;;;2.07;;
17153;SDS011;8692;52.164;7.558;2022-09-09T03:58:44;2.80;;;1.90;;
17153;SDS011;8692;52.164;7.558;2022-09-09T04:01:13;1.83;;;1.70;;
17153;SDS011;8692;52.164;7.558;2022-09-09T04:03:43;2.50;;;2.30;;
17153;SDS011;8692;52.164;7.558;2022-09-09T04:06:13;3.07;;;2.20;;
17153;SDS011;8692;52.164;7.558;2022-09-09T04:08:46;4.53;;;2.57;;
17153;SDS011;8692;52.164;7.558;2022-09-09T04:11:15;3.43;;;2.27;;
17153;SDS011;8692;52.164;7.558;2022-09-09T04:13:48;4.87;;;2.37;;
17153;SDS011;8692;52.164;7.558;2022-09-09T04:16:17;2.67;;;1.90;;
17153;SDS011;8692;52.164;7.558;2022-09-09T04:18:48;2.67;;;1.80;;
17153;SDS011;8692;52.164;7.558;2022-09-09T04:21:18;2.97;;;2.30;;
17153;SDS011;8692;52.164;7.558;2022-09-09T04:23:47;2.73;;;2.07;;
17153;SDS011;8692;52.164;7.558;2022-09-09T04:26:15;3.37;;;1.70;;
17153;SDS011;8692;52.164;7.558;2022-09-09T04:28:46;2.03;;;1.83;;
17153;SDS011;8692;52.164;7.558;2022-09-09T04:31:18;3.20;;;2.00;;
17153;SDS011;8692;52.164;7.558;2022-09-09T04:33:52;1.80;;;1.70;;
17153;SDS011;8692;52.164;7.558;2022-09-09T04:36:22;2.77;;;1.83;;
17153;SDS011;8692;52.164;7.558;2022-09-09T04:38:55;2.10;;;1.90;;
17153;SDS011;8692;52.164;7.558;2022-09-09T04:41:24;2.57;;;1.70;;
17153;SDS011;8692;52.164;7.558;2022-09-09T04:43:53;2.00;;;1.60;;
17153;SDS011;8692;52.164;7.558;2022-09-09T04:46:21;2.50;;;1.53;;
17153;SDS011;8692;52.164;7.558;2022-09-09T04:48:52;1.60;;;1.50;;
17153;SDS011;8692;52.164;7.558;2022-09-09T04:51:27;1.93;;;1.60;;
17153;SDS011;8692;52.164;7.558;2022-09-09T04:53:57;2.43;;;1.40;;
17153;SDS011;8692;52.164;7.558;2022-09-09T04:56:25;5.27;;;2.03;;
17153;SDS011;8692;52.164;7.558;2022-09-09T04:58:56;1.60;;;1.37;;
17153;SDS011;8692;52.164;7.558;2022-09-09T05:01:34;1.97;;;1.60;;
17153;SDS011;8692;52.164;7.558;2022-09-09T05:04:04;2.97;;;1.93;;
17153;SDS011;8692;52.164;7.558;2022-09-09T05:06:36;1.57;;;1.40;;
17153;SDS011;8692;52.164;7.558;2022-09-09T05:09:04;4.13;;;1.80;;
17153;SDS011;8692;52.164;7.558;2022-09-09T05:11:32;2.97;;;1.63;;
17153;SDS011;8692;52.164;7.558;2022-09-09T05:14:15;2.00;;;1.80;;
17153;SDS011;8692;52.164;7.558;2022-09-09T05:16:44;1.73;;;1.60;;
17153;SDS011;8692;52.164;7.558;2022-09-09T05:19:13;2.92;;;1.98;;
17153;SDS011;8692;52.164;7.558;2022-09-09T05:21:50;3.43;;;1.90;;
17153;SDS011;8692;52.164;7.558;2022-09-09T05:24:28;2.47;;;1.70;;
17153;SDS011;8692;52.164;7.558;2022-09-09T05:27:02;3.37;;;1.80;;
17153;SDS011;8692;52.164;7.558;2022-09-09T05:29:32;3.23;;;2.33;;
17153;SDS011;8692;52.164;7.558;2022-09-09T05:32:03;4.30;;;1.97;;
17153;SDS011;8692;52.164;7.558;2022-09-09T05:34:34;3.27;;;2.17;;
17153;SDS011;8692;52.164;7.558;2022-09-09T05:37:05;2.83;;;1.77;;
17153;SDS011;8692;52.164;7.558;2022-09-09T05:39:35;3.53;;;2.00;;
17153;SDS011;8692;52.164;7.558;2022-09-09T05:42:04;2.13;;;1.93;;
17153;SDS011;8692;52.164;7.558;2022-09-09T05:44:33;4.20;;;2.17;;
17153;SDS011;8692;52.164;7.558;2022-09-09T05:47:03;4.53;;;2.70;;
17153;SDS011;8692;52.164;7.558;2022-09-09T05:49:33;4.37;;;2.47;;
17153;SDS011;8692;52.164;7.558;2022-09-09T05:52:01;3.63;;;2.37;;
17153;SDS011;8692;52.164;7.558;2022-09-09T05:54:32;5.43;;;2.43;;
17153;SDS011;8692;52.164;7.558;2022-09-09T05:57:00;3.10;;;2.50;;
17153;SDS011;8692;52.164;7.558;2022-09-09T05:59:29;2.87;;;2.20;;
17153;SDS011;8692;52.164;7.558;2022-09-09T06:01:59;3.27;;;2.10;;
17153;SDS011;8692;52.164;7.558;2022-09-09T06:04:33;2.50;;;2.00;;
17153;SDS011;8692;52.164;7.558;2022-09-09T06:07:02;2.90;;;2.37;;
17153;SDS011;8692;52.164;7.558;2022-09-09T06:09:32;3.63;;;2.37;;
17153;SDS011;8692;52.164;7.558;2022-09-09T06:12:01;3.20;;;2.13;;
17153;SDS011;8692;52.164;7.558;2022-09-09T06:14:33;3.17;;;2.30;;
17153;SDS011;8692;52.164;7.558;2022-09-09T06:17:01;6.23;;;3.10;;
17153;SDS011;8692;52.164;7.558;2022-09-09T06:19:30;5.00;;;2.40;;
17153;SDS011;8692;52.164;7.558;2022-09-09T06:21:59;4.37;;;2.70;;
17153;SDS011;8692;52.164;7.558;2022-09-09T06:24:29;4.87;;;2.30;;
17153;SDS011;8692;52.164;7.558;2022-09-09T06:27:02;4.67;;;2.80;;
17153;SDS011;8692;52.164;7.558;2022-09-09T06:29:35;4.57;;;2.60;;
17153;SDS011;8692;52.164;7.558;2022-09-09T06:32:03;1.90;;;1.70;;
17153;SDS011;8692;52.164;7.558;2022-09-09T06:34:31;4.50;;;2.27;;
17153;SDS011;8692;52.164;7.558;2022-09-09T06:37:01;2.90;;;1.90;;
17153;SDS011;8692;52.164;7.558;2022-09-09T06:39:37;3.97;;;2.00;;
17153;SDS011;8692;52.164;7.558;2022-09-09T06:42:07;5.57;;;2.37;;
17153;SDS011;8692;52.164;7.558;2022-09-09T06:45:02;3.67;;;2.10;;
17153;SDS011;8692;52.164;7.558;2022-09-09T06:47:48;4.47;;;2.00;;
17153;SDS011;8692;52.164;7.558;2022-09-09T06:50:17;3.10;;;1.97;;
17153;SDS011;8692;52.164;7.558;2022-09-09T06:52:47;4.97;;;2.40;;
17153;SDS011;8692;52.164;7.558;2022-09-09T06:55:15;3.73;;;2.30;;
17153;SDS011;8692;52.164;7.558;2022-09-09T06:57:45;6.83;;;2.20;;
17153;SDS011;8692;52.164;7.558;2022-09-09T07:00:20;4.83;;;2.17;;
17153;SDS011;8692;52.164;7.558;2022-09-09T07:02:50;4.03;;;2.10;;
17153;SDS011;8692;52.164;7.558;2022-09-09T07:05:19;5.10;;;1.90;;
17153;SDS011;8692;52.164;7.558;2022-09-09T07:07:47;3.80;;;1.80;;
17153;SDS011;8692;52.164;7.558;2022-09-09T07:10:18;4.27;;;2.10;;
17153;SDS011;8692;52.164;7.558;2022-09-09T07:12:51;4.43;;;1.90;;
17153;SDS011;8692;52.164;7.558;2022-09-09T07:15:21;7.70;;;2.10;;
17153;SDS011;8692;52.164;7.558;2022-09-09T07:17:50;3.87;;;2.07;;
17153;SDS011;8692;52.164;7.558;2022-09-09T07:20:21;4.17;;;2.00;;
17153;SDS011;8692;52.164;7.558;2022-09-09T07:22:50;3.17;;;2.17;;
17153;SDS011;8692;52.164;7.558;2022-09-09T07:25:25;7.30;;;2.33;;
17153;SDS011;8692;52.164;7.558;2022-09-09T07:27:59;6.20;;;2.50;;
17153;SDS011;8692;52.164;7.558;2022-09-09T07:30:27;4.07;;;2.10;;
17153;SDS011;8692;52.164;7.558;2022-09-09T07:32:58;4.33;;;2.20;;
17153;SDS011;8692;52.164;7.558;2022-09-09T07:35:29;4.13;;;2.17;;
17153;SDS011;8692;52.164;7.558;2022-09-09T07:37:57;3.50;;;1.93;;
17153;SDS011;8692;52.164;7.558;2022-09-09T07:40:25;4.30;;;2.10;;
17153;SDS011;8692;52.164;7.558;2022-09-09T07:42:53;6.00;;;2.20;;
17153;SDS011;8692;52.164;7.558;2022-09-09T07:45:26;5.37;;;2.07;;
17153;SDS011;8692;52.164;7.558;2022-09-09T07:47:57;6.20;;;1.90;;
17153;SDS011;8692;52.164;7.558;2022-09-09T07:50:25;6.47;;;2.27;;
17153;SDS011;8692;52.164;7.558;2022-09-09T07:52:54;5.03;;;2.03;;
17153;SDS011;8692;52.164;7.558;2022-09-09T07:55:23;3.83;;;2.33;;
17153;SDS011;8692;52.164;7.558;2022-09-09T07:57:53;4.83;;;2.40;;
17153;SDS011;8692;52.164;7.558;2022-09-09T08:00:22;5.40;;;1.80;;
17153;SDS011;8692;52.164;7.558;2022-09-09T08:02:56;8.40;;;2.17;;
17153;SDS011;8692;52.164;7.558;2022-09-09T08:05:24;8.60;;;2.20;;
17153;SDS011;8692;52.164;7.558;2022-09-09T08:07:53;4.77;;;1.93;;
17153;SDS011;8692;52.164;7.558;2022-09-09T08:10:24;5.63;;;2.33;;
17153;SDS011;8692;52.164;7.558;2022-09-09T08:12:53;8.00;;;2.57;;
17153;SDS011;8692;52.164;7.558;2022-09-09T08:15:45;4.67;;;1.90;;
17153;SDS011;8692;52.164;7.558;2022-09-09T08:18:15;6.37;;;2.10;;
17153;SDS011;8692;52.164;7.558;2022-09-09T08:20:44;6.33;;;2.43;;
17153;SDS011;8692;52.164;7.558;2022-09-09T08:23:13;5.20;;;1.90;;
17153;SDS011;8692;52.164;7.558;2022-09-09T08:25:41;7.83;;;2.60;;
17153;SDS011;8692;52.164;7.558;2022-09-09T08:28:12;5.20;;;2.23;;
17153;SDS011;8692;52.164;7.558;2022-09-09T08:30:43;5.73;;;2.23;;
17153;SDS011;8692;52.164;7.558;2022-09-09T08:33:12;7.47;;;2.37;;
17153;SDS011;8692;52.164;7.558;2022-09-09T08:35:49;6.37;;;2.30;;
17153;SDS011;8692;52.164;7.558;2022-09-09T08:38:22;7.97;;;2.43;;
17153;SDS011;8692;52.164;7.558;2022-09-09T08:40:51;5.03;;;1.83;;
17153;SDS011;8692;52.164;7.558;2022-09-09T08:43:27;7.23;;;1.67;;
17153;SDS011;8692;52.164;7.558;2022-09-09T08:46:00;5.97;;;2.07;;
17153;SDS011;8692;52.164;7.558;2022-09-09T08:48:42;7.50;;;2.13;;
17153;SDS011;8692;52.164;7.558;2022-09-09T08:51:20;8.43;;;2.03;;
17153;SDS011;8692;52.164;7.558;2022-09-09T08:53:50;3.70;;;1.77;;
17153;SDS011;8692;52.164;7.558;2022-09-09T08:56:25;7.00;;;1.90;;
17153;SDS011;8692;52.164;7.558;2022-09-09T08:58:57;5.33;;;1.73;;
17153;SDS011;8692;52.164;7.558;2022-09-09T09:01:43;5.83;;;1.80;;
17153;SDS011;8692;52.164;7.558;2022-09-09T09:04:32;5.80;;;2.13;;
17153;SDS011;8692;52.164;7.558;2022-09-09T09:07:16;6.73;;;1.90;;
17153;SDS011;8692;52.164;7.558;2022-09-09T09:10:01;7.97;;;2.27;;
17153;SDS011;8692;52.164;7.558;2022-09-09T09:12:49;4.90;;;1.90;;
17153;SDS011;8692;52.164;7.558;2022-09-09T09:15:23;4.37;;;2.20;;
17153;SDS011;8692;52.164;7.558;2022-09-09T09:17:59;7.07;;;2.53;;
17153;SDS011;8692;52.164;7.558;2022-09-09T09:20:30;7.53;;;2.27;;
17153;SDS011;8692;52.164;7.558;2022-09-09T09:23:05;6.53;;;2.90;;
17153;SDS011;8692;52.164;7.558;2022-09-09T09:25:39;5.83;;;2.53;;
17153;SDS011;8692;52.164;7.558;2022-09-09T09:28:13;9.40;;;2.50;;
17153;SDS011;8692;52.164;7.558;2022-09-09T09:30:48;6.00;;;2.40;;
17153;SDS011;8692;52.164;7.558;2022-09-09T09:33:22;5.00;;;2.20;;
17153;SDS011;8692;52.164;7.558;2022-09-09T09:35:59;9.80;;;2.70;;
17153;SDS011;8692;52.164;7.558;2022-09-09T09:38:29;8.53;;;2.10;;
17153;SDS011;8692;52.164;7.558;2022-09-09T09:41:17;6.10;;;2.10;;
17153;SDS011;8692;52.164;7.558;2022-09-09T09:43:59;4.63;;;2.10;;
17153;SDS011;8692;52.164;7.558;2022-09-09T09:46:30;5.47;;;1.80;;
17153;SDS011;8692;52.164;7.558;2022-09-09T09:49:08;4.37;;;2.10;;
17153;SDS011;8692;52.164;7.558;2022-09-09T09:51:41;7.23;;;2.23;;
17153;SDS011;8692;52.164;7.558;2022-09-09T09:54:13;5.23;;;1.93;;
17153;SDS011;8692;52.164;7.558;2022-09-09T09:56:50;5.57;;;1.87;;
17153;SDS011;8692;52.164;7.558;2022-09-09T09:59:19;5.00;;;1.93;;
17153;SDS011;8692;52.164;7.558;2022-09-09T10:02:20;6.10;;;1.90;;
17153;SDS011;8692;52.164;7.558;2022-09-09T10:05:00;6.07;;;2.13;;
17153;SDS011;8692;52.164;7.558;2022-09-09T10:07:34;5.10;;;2.00;;
17153;SDS011;8692;52.164;7.558;2022-09-09T10:10:04;4.07;;;1.70;;
17153;SDS011;8692;52.164;7.558;2022-09-09T10:12:38;6.57;;;2.07;;
17153;SDS011;8692;52.164;7.558;2022-09-09T10:15:22;9.70;;;2.67;;
17153;SDS011;8692;52.164;7.558;2022-09-09T10:18:01;5.93;;;1.90;;
17153;SDS011;8692;52.164;7.558;2022-09-09T10:20:42;4.40;;;1.87;;
17153;SDS011;8692;52.164;7.558;2022-09-09T10:23:26;9.07;;;2.70;;
17153;SDS011;8692;52.164;7.558;2022-09-09T10:26:11;4.40;;;1.97;;
17153;SDS011;8692;52.164;7.558;2022-09-09T10:29:10;4.67;;;1.80;;
17153;SDS011;8692;52.164;7.558;2022-09-09T10:31:51;7.10;;;1.60;;
17153;SDS011;8692;52.164;7.558;2022-09-09T10:34:39;4.37;;;1.60;;
17153;SDS011;8692;52.164;7.558;2022-09-09T10:37:27;3.17;;;1.20;;
17153;SDS011;8692;52.164;7.558;2022-09-09T10:40:12;3.93;;;1.20;;
17153;SDS011;8692;52.164;7.558;2022-09-09T10:42:46;2.93;;;1.20;;
17153;SDS011;8692;52.164;7.558;2022-09-09T10:45:16;5.37;;;1.27;;
17153;SDS011;8692;52.164;7.558;2022-09-09T10:47:54;4.97;;;1.43;;
17153;SDS011;8692;52.164;7.558;2022-09-09T10:50:40;2.73;;;1.30;;
17153;SDS011;8692;52.164;7.558;2022-09-09T10:53:36;7.30;;;1.63;;
17153;SDS011;8692;52.164;7.558;2022-09-09T10:56:15;3.43;;;1.30;;
17153;SDS011;8692;52.164;7.558;2022-09-09T10:58:46;4.30;;;1.17;;
17153;SDS011;8692;52.164;7.558;2022-09-09T11:01:18;4.03;;;1.20;;
17153;SDS011;8692;52.164;7.558;2022-09-09T11:03:52;2.03;;;1.10;;
17153;SDS011;8692;52.164;7.558;2022-09-09T11:06:23;4.67;;;1.33;;
17153;SDS011;8692;52.164;7.558;2022-09-09T11:08:59;4.17;;;1.10;;
17153;SDS011;8692;52.164;7.558;2022-09-09T11:11:32;5.43;;;1.27;;
17153;SDS011;8692;52.164;7.558;2022-09-09T11:14:05;4.03;;;1.23;;
17153;SDS011;8692;52.164;7.558;2022-09-09T11:16:40;4.27;;;0.97;;
17153;SDS011;8692;52.164;7.558;2022-09-09T11:19:17;2.60;;;1.00;;
17153;SDS011;8692;52.164;7.558;2022-09-09T11:21:52;3.80;;;1.10;;
17153;SDS011;8692;52.164;7.558;2022-09-09T11:24:21;4.77;;;1.33;;
17153;SDS011;8692;52.164;7.558;2022-09-09T11:26:57;5.20;;;1.20;;
17153;SDS011;8692;52.164;7.558;2022-09-09T11:32:40;3.70;;;1.23;;
17153;SDS011;8692;52.164;7.558;2022-09-09T11:35:27;3.20;;;1.27;;
17153;SDS011;8692;52.164;7.558;2022-09-09T11:38:11;5.27;;;1.03;;
17153;SDS011;8692;52.164;7.558;2022-09-09T11:40:47;3.08;;;1.17;;
17153;SDS011;8692;52.164;7.558;2022-09-09T11:43:29;4.30;;;0.93;;
17153;SDS011;8692;52.164;7.558;2022-09-09T11:45:59;4.53;;;1.10;;
17153;SDS011;8692;52.164;7.558;2022-09-09T11:48:32;5.87;;;1.37;;
17153;SDS011;8692;52.164;7.558;2022-09-09T11:51:03;4.77;;;1.60;;
17153;SDS011;8692;52.164;7.558;2022-09-09T11:53:47;5.87;;;1.37;;
17153;SDS011;8692;52.164;7.558;2022-09-09T11:56:23;4.63;;;1.33;;
17153;SDS011;8692;52.164;7.558;2022-09-09T11:58:56;4.20;;;1.17;;
17153;SDS011;8692;52.164;7.558;2022-09-09T12:01:33;4.73;;;1.23;;
17153;SDS011;8692;52.164;7.558;2022-09-09T12:04:10;6.77;;;1.53;;
17153;SDS011;8692;52.164;7.558;2022-09-09T12:06:49;2.40;;;1.00;;
17153;SDS011;8692;52.164;7.558;2022-09-09T12:09:23;2.50;;;1.40;;
17153;SDS011;8692;52.164;7.558;2022-09-09T12:14:59;2.57;;;1.60;;
17153;SDS011;8692;52.164;7.558;2022-09-09T12:17:36;4.80;;;1.90;;
17153;SDS011;8692;52.164;7.558;2022-09-09T12:20:13;4.90;;;1.20;;
17153;SDS011;8692;52.164;7.558;2022-09-09T12:22:50;3.47;;;1.40;;
17153;SDS011;8692;52.164;7.558;2022-09-09T12:25:30;3.30;;;1.40;;
17153;SDS011;8692;52.164;7.558;2022-09-09T12:28:17;3.20;;;1.33;;
17153;SDS011;8692;52.164;7.558;2022-09-09T12:30:49;4.47;;;1.00;;
17153;SDS011;8692;52.164;7.558;2022-09-09T12:33:24;6.70;;;1.27;;
17153;SDS011;8692;52.164;7.558;2022-09-09T12:35:53;2.10;;;1.30;;
17153;SDS011;8692;52.164;7.558;2022-09-09T12:38:29;3.30;;;1.30;;
17153;SDS011;8692;52.164;7.558;2022-09-09T12:41:02;2.50;;;0.93;;
17153;SDS011;8692;52.164;7.558;2022-09-09T12:43:32;5.20;;;1.30;;
17153;SDS011;8692;52.164;7.558;2022-09-09T12:46:02;4.07;;;1.20;;
17153;SDS011;8692;52.164;7.558;2022-09-09T12:48:40;3.13;;;0.90;;
17153;SDS011;8692;52.164;7.558;2022-09-09T12:51:16;3.77;;;1.03;;
17153;SDS011;8692;52.164;7.558;2022-09-09T12:53:48;2.60;;;1.07;;
17153;SDS011;8692;52.164;7.558;2022-09-09T12:56:20;3.13;;;1.03;;
17153;SDS011;8692;52.164;7.558;2022-09-09T12:58:50;5.60;;;1.30;;
17153;SDS011;8692;52.164;7.558;2022-09-09T13:01:22;3.28;;;0.93;;
17153;SDS011;8692;52.164;7.558;2022-09-09T13:03:52;4.83;;;1.40;;
17153;SDS011;8692;52.164;7.558;2022-09-09T13:06:23;5.40;;;1.10;;
17153;SDS011;8692;52.164;7.558;2022-09-09T13:08:55;3.60;;;1.10;;
17153;SDS011;8692;52.164;7.558;2022-09-09T13:11:26;2.37;;;0.70;;
17153;SDS011;8692;52.164;7.558;2022-09-09T13:14:00;2.20;;;0.90;;
17153;SDS011;8692;52.164;7.558;2022-09-09T13:16:31;4.07;;;1.00;;
17153;SDS011;8692;52.164;7.558;2022-09-09T13:19:08;3.10;;;0.73;;
17153;SDS011;8692;52.164;7.558;2022-09-09T13:21:43;1.53;;;0.70;;
17153;SDS011;8692;52.164;7.558;2022-09-09T13:24:22;2.13;;;0.93;;
17153;SDS011;8692;52.164;7.558;2022-09-09T13:26:58;3.93;;;1.40;;
17153;SDS011;8692;52.164;7.558;2022-09-09T13:29:28;1.40;;;0.80;;
17153;SDS011;8692;52.164;7.558;2022-09-09T13:32:04;6.00;;;1.13;;
17153;SDS011;8692;52.164;7.558;2022-09-09T13:34:34;2.50;;;0.90;;
17153;SDS011;8692;52.164;7.558;2022-09-09T13:37:05;2.80;;;1.40;;
17153;SDS011;8692;52.164;7.558;2022-09-09T13:39:40;2.43;;;1.07;;
17153;SDS011;8692;52.164;7.558;2022-09-09T13:42:22;2.27;;;0.87;;
17153;SDS011;8692;52.164;7.558;2022-09-09T13:44:53;3.50;;;0.90;;
17153;SDS011;8692;52.164;7.558;2022-09-09T13:47:28;3.95;;;0.98;;
17153;SDS011;8692;52.164;7.558;2022-09-09T13:50:09;10.70;;;1.33;;
17153;SDS011;8692;52.164;7.558;2022-09-09T13:52:45;2.53;;;1.03;;
17153;SDS011;8692;52.164;7.558;2022-09-09T13:55:16;3.23;;;0.90;;
17153;SDS011;8692;52.164;7.558;2022-09-09T13:57:51;2.40;;;1.00;;
17153;SDS011;8692;52.164;7.558;2022-09-09T14:00:20;1.63;;;0.63;;
17153;SDS011;8692;52.164;7.558;2022-09-09T14:02:52;2.10;;;1.00;;
17153;SDS011;8692;52.164;7.558;2022-09-09T14:05:21;5.17;;;1.10;;
17153;SDS011;8692;52.164;7.558;2022-09-09T14:07:50;1.70;;;0.80;;
17153;SDS011;8692;52.164;7.558;2022-09-09T14:10:21;2.23;;;0.93;;
17153;SDS011;8692;52.164;7.558;2022-09-09T14:12:49;2.30;;;0.60;;
17153;SDS011;8692;52.164;7.558;2022-09-09T14:15:19;2.47;;;0.67;;
17153;SDS011;8692;52.164;7.558;2022-09-09T14:17:48;1.13;;;0.60;;
17153;SDS011;8692;52.164;7.558;2022-09-09T14:20:18;2.33;;;0.60;;
17153;SDS011;8692;52.164;7.558;2022-09-09T14:22:46;2.50;;;0.80;;
17153;SDS011;8692;52.164;7.558;2022-09-09T14:25:14;2.40;;;0.93;;
17153;SDS011;8692;52.164;7.558;2022-09-09T14:27:42;1.43;;;0.63;;
17153;SDS011;8692;52.164;7.558;2022-09-09T14:30:14;3.83;;;0.83;;
17153;SDS011;8692;52.164;7.558;2022-09-09T14:32:45;3.23;;;1.50;;
17153;SDS011;8692;52.164;7.558;2022-09-09T14:35:13;2.93;;;1.20;;
17153;SDS011;8692;52.164;7.558;2022-09-09T14:37:47;2.93;;;0.93;;
17153;SDS011;8692;52.164;7.558;2022-09-09T14:40:15;3.60;;;1.07;;
17153;SDS011;8692;52.164;7.558;2022-09-09T14:42:46;1.63;;;0.97;;
17153;SDS011;8692;52.164;7.558;2022-09-09T14:45:16;2.10;;;0.80;;
17153;SDS011;8692;52.164;7.558;2022-09-09T14:47:44;2.20;;;1.17;;
17153;SDS011;8692;52.164;7.558;2022-09-09T14:50:12;2.77;;;0.90;;
17153;SDS011;8692;52.164;7.558;2022-09-09T14:52:40;2.37;;;1.10;;
17153;SDS011;8692;52.164;7.558;2022-09-09T14:55:10;1.63;;;0.97;;
17153;SDS011;8692;52.164;7.558;2022-09-09T14:57:39;2.63;;;1.20;;
17153;SDS011;8692;52.164;7.558;2022-09-09T15:00:08;5.33;;;1.33;;
17153;SDS011;8692;52.164;7.558;2022-09-09T15:02:37;2.50;;;1.03;;
17153;SDS011;8692;52.164;7.558;2022-09-09T15:05:12;2.50;;;1.10;;
17153;SDS011;8692;52.164;7.558;2022-09-09T15:07:41;1.60;;;0.83;;
17153;SDS011;8692;52.164;7.558;2022-09-09T15:10:13;1.87;;;0.80;;
17153;SDS011;8692;52.164;7.558;2022-09-09T15:12:44;2.47;;;1.10;;
17153;SDS011;8692;52.164;7.558;2022-09-09T15:15:12;3.57;;;0.90;;
17153;SDS011;8692;52.164;7.558;2022-09-09T15:17:41;4.10;;;1.13;;
17153;SDS011;8692;52.164;7.558;2022-09-09T15:20:11;1.53;;;1.10;;
17153;SDS011;8692;52.164;7.558;2022-09-09T15:22:40;2.93;;;0.87;;
17153;SDS011;8692;52.164;7.558;2022-09-09T15:25:08;2.93;;;0.90;;
17153;SDS011;8692;52.164;7.558;2022-09-09T15:27:38;1.67;;;0.83;;
17153;SDS011;8692;52.164;7.558;2022-09-09T15:30:09;1.20;;;0.90;;
17153;SDS011;8692;52.164;7.558;2022-09-09T15:32:38;3.20;;;1.30;;
17153;SDS011;8692;52.164;7.558;2022-09-09T15:35:06;3.30;;;1.20;;
17153;SDS011;8692;52.164;7.558;2022-09-09T15:37:35;1.80;;;1.00;;
17153;SDS011;8692;52.164;7.558;2022-09-09T15:40:03;4.53;;;1.30;;
17153;SDS011;8692;52.164;7.558;2022-09-09T15:42:35;3.93;;;0.83;;
17153;SDS011;8692;52.164;7.558;2022-09-09T15:45:05;1.60;;;0.90;;
17153;SDS011;8692;52.164;7.558;2022-09-09T15:47:35;2.47;;;1.00;;
17153;SDS011;8692;52.164;7.558;2022-09-09T15:50:04;1.27;;;0.70;;